sensor_id;sensor_type;location;lat;lon;timestamp;P1;durP1;ratioP1;P2;durP2;ratioP2
69030;SDS011;56083;48.774;8.942;2024-03-17T00:01:48;16.67;;;8.95;;
69030;SDS011;56083;48.774;8.942;2024-03-17T00:04:14;15.30;;;8.35;;
69030;SDS011;56083;48.774;8.942;2024-03-17T00:06:40;14.63;;;8.75;;
69030;SDS011;56083;48.774;8.942;2024-03-17T00:09:06;16.30;;;8.68;;
69030;SDS011;56083;48.774;8.942;2024-03-17T00:11:34;16.30;;;7.93;;
69030;SDS011;56083;48.774;8.942;2024-03-17T00:14:01;13.65;;;8.10;;
69030;SDS011;56083;48.774;8.942;2024-03-17T00:16:27;12.02;;;8.55;;
69030;SDS011;56083;48.774;8.942;2024-03-17T00:18:53;16.75;;;8.40;;
69030;SDS011;56083;48.774;8.942;2024-03-17T00:21:20;15.45;;;8.45;;
69030;SDS011;56083;48.774;8.942;2024-03-17T00:23:52;16.15;;;8.40;;
69030;SDS011;56083;48.774;8.942;2024-03-17T00:26:18;16.90;;;8.98;;
69030;SDS011;56083;48.774;8.942;2024-03-17T00:28:44;11.73;;;8.30;;
69030;SDS011;56083;48.774;8.942;2024-03-17T00:31:13;13.30;;;8.95;;
69030;SDS011;56083;48.774;8.942;2024-03-17T00:33:40;14.18;;;8.02;;
69030;SDS011;56083;48.774;8.942;2024-03-17T00:36:06;15.30;;;8.55;;
69030;SDS011;56083;48.774;8.942;2024-03-17T00:38:32;13.82;;;8.10;;
69030;SDS011;56083;48.774;8.942;2024-03-17T00:40:59;18.33;;;8.35;;
69030;SDS011;56083;48.774;8.942;2024-03-17T01:16:35;15.15;;;9.68;;
69030;SDS011;56083;48.774;8.942;2024-03-17T01:19:01;17.48;;;9.80;;
69030;SDS011;56083;48.774;8.942;2024-03-17T01:21:27;22.95;;;10.65;;
69030;SDS011;56083;48.774;8.942;2024-03-17T01:23:53;17.65;;;10.50;;
69030;SDS011;56083;48.774;8.942;2024-03-17T01:26:19;18.45;;;10.55;;
69030;SDS011;56083;48.774;8.942;2024-03-17T01:28:45;21.38;;;10.20;;
69030;SDS011;56083;48.774;8.942;2024-03-17T01:31:11;22.45;;;10.55;;
69030;SDS011;56083;48.774;8.942;2024-03-17T01:33:37;18.38;;;10.13;;
69030;SDS011;56083;48.774;8.942;2024-03-17T01:36:04;21.75;;;10.70;;
69030;SDS011;56083;48.774;8.942;2024-03-17T01:38:30;18.85;;;9.82;;
69030;SDS011;56083;48.774;8.942;2024-03-17T01:40:57;19.02;;;10.45;;
69030;SDS011;56083;48.774;8.942;2024-03-17T01:43:23;18.80;;;10.00;;
69030;SDS011;56083;48.774;8.942;2024-03-17T01:45:49;18.73;;;9.90;;
69030;SDS011;56083;48.774;8.942;2024-03-17T01:48:16;17.27;;;9.80;;
69030;SDS011;56083;48.774;8.942;2024-03-17T01:50:44;17.25;;;9.70;;
69030;SDS011;56083;48.774;8.942;2024-03-17T01:53:11;18.50;;;9.45;;
69030;SDS011;56083;48.774;8.942;2024-03-17T01:55:39;14.48;;;9.35;;
69030;SDS011;56083;48.774;8.942;2024-03-17T01:58:05;16.27;;;10.07;;
69030;SDS011;56083;48.774;8.942;2024-03-17T02:00:38;19.13;;;9.70;;
69030;SDS011;56083;48.774;8.942;2024-03-17T02:03:04;14.25;;;9.50;;
69030;SDS011;56083;48.774;8.942;2024-03-17T02:05:31;18.13;;;9.80;;
69030;SDS011;56083;48.774;8.942;2024-03-17T02:07:56;16.33;;;9.50;;
69030;SDS011;56083;48.774;8.942;2024-03-17T02:10:22;19.85;;;10.07;;
69030;SDS011;56083;48.774;8.942;2024-03-17T02:12:50;20.77;;;9.57;;
69030;SDS011;56083;48.774;8.942;2024-03-17T02:15:16;13.68;;;9.00;;
69030;SDS011;56083;48.774;8.942;2024-03-17T02:17:42;26.13;;;9.77;;
69030;SDS011;56083;48.774;8.942;2024-03-17T02:20:09;18.02;;;10.20;;
69030;SDS011;56083;48.774;8.942;2024-03-17T02:22:37;17.98;;;10.57;;
69030;SDS011;56083;48.774;8.942;2024-03-17T02:25:03;16.25;;;9.63;;
69030;SDS011;56083;48.774;8.942;2024-03-17T02:27:33;16.83;;;9.75;;
69030;SDS011;56083;48.774;8.942;2024-03-17T02:29:59;15.48;;;9.70;;
69030;SDS011;56083;48.774;8.942;2024-03-17T02:32:25;15.77;;;9.07;;
69030;SDS011;56083;48.774;8.942;2024-03-17T02:34:52;12.77;;;8.90;;
69030;SDS011;56083;48.774;8.942;2024-03-17T02:37:20;13.55;;;7.53;;
69030;SDS011;56083;48.774;8.942;2024-03-17T02:39:46;17.02;;;9.13;;
69030;SDS011;56083;48.774;8.942;2024-03-17T02:42:12;16.30;;;8.73;;
69030;SDS011;56083;48.774;8.942;2024-03-17T02:44:39;15.70;;;8.40;;
69030;SDS011;56083;48.774;8.942;2024-03-17T02:47:06;15.15;;;8.43;;
69030;SDS011;56083;48.774;8.942;2024-03-17T02:49:35;14.70;;;8.35;;
69030;SDS011;56083;48.774;8.942;2024-03-17T02:52:05;21.70;;;9.25;;
69030;SDS011;56083;48.774;8.942;2024-03-17T02:54:32;11.82;;;7.97;;
69030;SDS011;56083;48.774;8.942;2024-03-17T02:57:00;16.27;;;8.75;;
69030;SDS011;56083;48.774;8.942;2024-03-17T02:59:26;20.27;;;10.40;;
69030;SDS011;56083;48.774;8.942;2024-03-17T03:01:53;16.38;;;9.52;;
69030;SDS011;56083;48.774;8.942;2024-03-17T03:04:20;18.05;;;10.55;;
69030;SDS011;56083;48.774;8.942;2024-03-17T03:06:46;20.98;;;10.98;;
69030;SDS011;56083;48.774;8.942;2024-03-17T03:09:13;22.73;;;11.15;;
69030;SDS011;56083;48.774;8.942;2024-03-17T03:11:45;22.92;;;11.23;;
69030;SDS011;56083;48.774;8.942;2024-03-17T03:14:12;19.55;;;10.48;;
69030;SDS011;56083;48.774;8.942;2024-03-17T03:16:38;14.68;;;10.05;;
69030;SDS011;56083;48.774;8.942;2024-03-17T03:19:04;19.63;;;10.73;;
69030;SDS011;56083;48.774;8.942;2024-03-17T03:21:30;17.73;;;10.88;;
69030;SDS011;56083;48.774;8.942;2024-03-17T03:23:56;20.85;;;11.45;;
69030;SDS011;56083;48.774;8.942;2024-03-17T03:26:22;21.20;;;12.07;;
69030;SDS011;56083;48.774;8.942;2024-03-17T03:28:48;21.17;;;11.90;;
69030;SDS011;56083;48.774;8.942;2024-03-17T03:31:14;17.90;;;11.13;;
69030;SDS011;56083;48.774;8.942;2024-03-17T03:33:41;19.67;;;11.07;;
69030;SDS011;56083;48.774;8.942;2024-03-17T03:36:11;18.75;;;11.18;;
69030;SDS011;56083;48.774;8.942;2024-03-17T03:38:39;23.73;;;10.77;;
69030;SDS011;56083;48.774;8.942;2024-03-17T03:41:09;22.42;;;11.18;;
69030;SDS011;56083;48.774;8.942;2024-03-17T03:43:35;16.88;;;10.43;;
69030;SDS011;56083;48.774;8.942;2024-03-17T03:46:03;22.67;;;11.35;;
69030;SDS011;56083;48.774;8.942;2024-03-17T03:48:30;18.27;;;10.55;;
69030;SDS011;56083;48.774;8.942;2024-03-17T03:51:09;18.13;;;10.02;;
69030;SDS011;56083;48.774;8.942;2024-03-17T03:58:52;21.73;;;11.27;;
69030;SDS011;56083;48.774;8.942;2024-03-17T04:01:18;19.10;;;11.27;;
69030;SDS011;56083;48.774;8.942;2024-03-17T04:03:47;19.38;;;11.77;;
69030;SDS011;56083;48.774;8.942;2024-03-17T04:06:16;17.88;;;11.02;;
69030;SDS011;56083;48.774;8.942;2024-03-17T04:08:42;22.38;;;12.40;;
69030;SDS011;56083;48.774;8.942;2024-03-17T04:11:09;21.90;;;11.63;;
69030;SDS011;56083;48.774;8.942;2024-03-17T04:13:36;18.00;;;11.13;;
69030;SDS011;56083;48.774;8.942;2024-03-17T04:16:06;22.45;;;10.95;;
69030;SDS011;56083;48.774;8.942;2024-03-17T04:18:32;20.95;;;11.02;;
69030;SDS011;56083;48.774;8.942;2024-03-17T04:21:03;19.25;;;11.27;;
69030;SDS011;56083;48.774;8.942;2024-03-17T04:23:31;17.55;;;10.63;;
69030;SDS011;56083;48.774;8.942;2024-03-17T04:25:57;20.83;;;11.18;;
69030;SDS011;56083;48.774;8.942;2024-03-17T04:28:24;18.00;;;10.75;;
69030;SDS011;56083;48.774;8.942;2024-03-17T04:30:50;20.67;;;12.15;;
69030;SDS011;56083;48.774;8.942;2024-03-17T04:33:16;20.35;;;11.60;;
69030;SDS011;56083;48.774;8.942;2024-03-17T04:35:42;19.92;;;11.45;;
69030;SDS011;56083;48.774;8.942;2024-03-17T04:38:09;22.02;;;11.63;;
69030;SDS011;56083;48.774;8.942;2024-03-17T04:40:39;20.27;;;11.15;;
69030;SDS011;56083;48.774;8.942;2024-03-17T04:43:06;18.50;;;10.77;;
69030;SDS011;56083;48.774;8.942;2024-03-17T04:45:32;19.45;;;10.48;;
69030;SDS011;56083;48.774;8.942;2024-03-17T04:47:58;17.08;;;9.82;;
69030;SDS011;56083;48.774;8.942;2024-03-17T04:50:24;17.80;;;10.43;;
69030;SDS011;56083;48.774;8.942;2024-03-17T04:52:51;20.77;;;10.88;;
69030;SDS011;56083;48.774;8.942;2024-03-17T04:55:17;18.75;;;10.30;;
69030;SDS011;56083;48.774;8.942;2024-03-17T04:57:45;25.05;;;10.82;;
69030;SDS011;56083;48.774;8.942;2024-03-17T05:00:11;23.30;;;12.00;;
69030;SDS011;56083;48.774;8.942;2024-03-17T05:10:28;19.65;;;11.48;;
69030;SDS011;56083;48.774;8.942;2024-03-17T05:18:06;21.67;;;12.00;;
69030;SDS011;56083;48.774;8.942;2024-03-17T05:20:32;28.58;;;14.35;;
69030;SDS011;56083;48.774;8.942;2024-03-17T05:22:58;25.38;;;13.95;;
69030;SDS011;56083;48.774;8.942;2024-03-17T05:25:24;24.80;;;12.82;;
69030;SDS011;56083;48.774;8.942;2024-03-17T05:27:50;23.35;;;13.50;;
69030;SDS011;56083;48.774;8.942;2024-03-17T05:30:16;20.90;;;12.55;;
69030;SDS011;56083;48.774;8.942;2024-03-17T05:32:43;22.42;;;13.07;;
69030;SDS011;56083;48.774;8.942;2024-03-17T05:35:09;21.48;;;12.80;;
69030;SDS011;56083;48.774;8.942;2024-03-17T05:37:36;23.08;;;12.55;;
69030;SDS011;56083;48.774;8.942;2024-03-17T05:40:02;21.13;;;12.52;;
69030;SDS011;56083;48.774;8.942;2024-03-17T05:42:29;23.73;;;12.80;;
69030;SDS011;56083;48.774;8.942;2024-03-17T05:44:55;23.50;;;11.75;;
69030;SDS011;56083;48.774;8.942;2024-03-17T05:47:21;18.23;;;11.00;;
69030;SDS011;56083;48.774;8.942;2024-03-17T05:49:47;21.95;;;12.13;;
69030;SDS011;56083;48.774;8.942;2024-03-17T05:52:13;22.13;;;12.20;;
69030;SDS011;56083;48.774;8.942;2024-03-17T05:54:39;21.10;;;12.32;;
69030;SDS011;56083;48.774;8.942;2024-03-17T05:57:05;21.90;;;12.55;;
69030;SDS011;56083;48.774;8.942;2024-03-17T05:59:34;19.42;;;11.15;;
69030;SDS011;56083;48.774;8.942;2024-03-17T06:02:00;21.02;;;12.27;;
69030;SDS011;56083;48.774;8.942;2024-03-17T06:04:26;22.42;;;12.23;;
69030;SDS011;56083;48.774;8.942;2024-03-17T06:06:52;20.05;;;11.80;;
69030;SDS011;56083;48.774;8.942;2024-03-17T06:09:18;20.83;;;12.50;;
69030;SDS011;56083;48.774;8.942;2024-03-17T06:11:45;18.85;;;11.63;;
69030;SDS011;56083;48.774;8.942;2024-03-17T06:14:13;18.50;;;11.82;;
69030;SDS011;56083;48.774;8.942;2024-03-17T06:16:39;20.25;;;11.60;;
69030;SDS011;56083;48.774;8.942;2024-03-17T06:19:05;19.52;;;11.50;;
69030;SDS011;56083;48.774;8.942;2024-03-17T06:21:32;22.45;;;11.88;;
69030;SDS011;56083;48.774;8.942;2024-03-17T06:23:58;20.45;;;12.00;;
69030;SDS011;56083;48.774;8.942;2024-03-17T06:26:24;18.48;;;11.57;;
69030;SDS011;56083;48.774;8.942;2024-03-17T06:28:51;17.20;;;10.55;;
69030;SDS011;56083;48.774;8.942;2024-03-17T06:31:17;13.68;;;9.60;;
69030;SDS011;56083;48.774;8.942;2024-03-17T06:44:07;12.25;;;7.22;;
69030;SDS011;56083;48.774;8.942;2024-03-17T06:46:33;11.05;;;7.35;;
69030;SDS011;56083;48.774;8.942;2024-03-17T06:48:59;12.93;;;7.38;;
69030;SDS011;56083;48.774;8.942;2024-03-17T06:51:25;10.73;;;7.28;;
69030;SDS011;56083;48.774;8.942;2024-03-17T06:53:51;9.45;;;6.63;;
69030;SDS011;56083;48.774;8.942;2024-03-17T06:56:17;9.07;;;6.25;;
69030;SDS011;56083;48.774;8.942;2024-03-17T06:58:43;9.43;;;6.53;;
69030;SDS011;56083;48.774;8.942;2024-03-17T07:01:09;9.63;;;6.32;;
69030;SDS011;56083;48.774;8.942;2024-03-17T07:03:35;9.50;;;6.65;;
69030;SDS011;56083;48.774;8.942;2024-03-17T07:06:02;12.60;;;6.35;;
69030;SDS011;56083;48.774;8.942;2024-03-17T07:08:31;10.13;;;6.25;;
69030;SDS011;56083;48.774;8.942;2024-03-17T07:11:06;9.23;;;6.43;;
69030;SDS011;56083;48.774;8.942;2024-03-17T07:13:34;8.00;;;5.88;;
69030;SDS011;56083;48.774;8.942;2024-03-17T07:16:01;9.35;;;5.68;;
69030;SDS011;56083;48.774;8.942;2024-03-17T07:18:28;9.15;;;5.93;;
69030;SDS011;56083;48.774;8.942;2024-03-17T07:21:00;9.65;;;4.72;;
69030;SDS011;56083;48.774;8.942;2024-03-17T07:23:29;9.57;;;5.07;;
69030;SDS011;56083;48.774;8.942;2024-03-17T07:25:56;8.88;;;4.93;;
69030;SDS011;56083;48.774;8.942;2024-03-17T07:28:22;6.47;;;5.00;;
69030;SDS011;56083;48.774;8.942;2024-03-17T07:30:52;8.88;;;4.95;;
69030;SDS011;56083;48.774;8.942;2024-03-17T07:33:18;7.35;;;5.57;;
69030;SDS011;56083;48.774;8.942;2024-03-17T07:35:52;11.65;;;5.88;;
69030;SDS011;56083;48.774;8.942;2024-03-17T07:38:20;7.28;;;4.65;;
69030;SDS011;56083;48.774;8.942;2024-03-17T07:41:08;8.35;;;5.07;;
69030;SDS011;56083;48.774;8.942;2024-03-17T07:43:37;9.07;;;4.20;;
69030;SDS011;56083;48.774;8.942;2024-03-17T07:46:07;7.60;;;4.93;;
69030;SDS011;56083;48.774;8.942;2024-03-17T07:48:35;10.98;;;5.05;;
69030;SDS011;56083;48.774;8.942;2024-03-17T07:51:02;7.63;;;5.10;;
69030;SDS011;56083;48.774;8.942;2024-03-17T07:53:29;7.35;;;5.40;;
69030;SDS011;56083;48.774;8.942;2024-03-17T07:58:24;6.57;;;4.75;;
69030;SDS011;56083;48.774;8.942;2024-03-17T08:00:51;7.32;;;5.30;;
69030;SDS011;56083;48.774;8.942;2024-03-17T08:03:18;7.90;;;5.30;;
69030;SDS011;56083;48.774;8.942;2024-03-17T08:05:53;10.82;;;5.95;;
69030;SDS011;56083;48.774;8.942;2024-03-17T08:08:19;9.85;;;5.68;;
69030;SDS011;56083;48.774;8.942;2024-03-17T08:10:46;9.82;;;5.22;;
69030;SDS011;56083;48.774;8.942;2024-03-17T08:13:13;11.05;;;5.97;;
69030;SDS011;56083;48.774;8.942;2024-03-17T08:15:42;7.18;;;5.47;;
69030;SDS011;56083;48.774;8.942;2024-03-17T08:18:09;11.55;;;6.00;;
69030;SDS011;56083;48.774;8.942;2024-03-17T08:20:38;8.32;;;5.47;;
69030;SDS011;56083;48.774;8.942;2024-03-17T08:23:05;8.43;;;5.00;;
69030;SDS011;56083;48.774;8.942;2024-03-17T08:25:31;6.82;;;5.18;;
69030;SDS011;56083;48.774;8.942;2024-03-17T08:27:57;7.00;;;4.80;;
69030;SDS011;56083;48.774;8.942;2024-03-17T08:30:23;6.63;;;4.68;;
69030;SDS011;56083;48.774;8.942;2024-03-17T08:32:49;8.73;;;4.68;;
69030;SDS011;56083;48.774;8.942;2024-03-17T08:35:15;6.47;;;4.55;;
69030;SDS011;56083;48.774;8.942;2024-03-17T08:37:41;6.45;;;4.05;;
69030;SDS011;56083;48.774;8.942;2024-03-17T08:40:07;7.40;;;4.18;;
69030;SDS011;56083;48.774;8.942;2024-03-17T08:42:35;6.40;;;4.10;;
69030;SDS011;56083;48.774;8.942;2024-03-17T08:45:02;6.25;;;3.83;;
69030;SDS011;56083;48.774;8.942;2024-03-17T08:47:28;7.45;;;4.10;;
69030;SDS011;56083;48.774;8.942;2024-03-17T08:49:54;4.35;;;3.33;;
69030;SDS011;56083;48.774;8.942;2024-03-17T08:52:20;5.85;;;3.60;;
69030;SDS011;56083;48.774;8.942;2024-03-17T08:54:47;7.22;;;3.85;;
69030;SDS011;56083;48.774;8.942;2024-03-17T08:57:16;8.25;;;3.78;;
69030;SDS011;56083;48.774;8.942;2024-03-17T08:59:42;6.55;;;3.60;;
69030;SDS011;56083;48.774;8.942;2024-03-17T09:02:11;5.57;;;3.53;;
69030;SDS011;56083;48.774;8.942;2024-03-17T09:04:37;6.00;;;3.70;;
69030;SDS011;56083;48.774;8.942;2024-03-17T09:07:03;6.50;;;3.47;;
69030;SDS011;56083;48.774;8.942;2024-03-17T09:09:29;6.28;;;3.75;;
69030;SDS011;56083;48.774;8.942;2024-03-17T09:11:55;5.60;;;3.90;;
69030;SDS011;56083;48.774;8.942;2024-03-17T09:14:21;6.65;;;4.00;;
69030;SDS011;56083;48.774;8.942;2024-03-17T09:16:48;5.93;;;4.03;;
69030;SDS011;56083;48.774;8.942;2024-03-17T09:19:14;8.43;;;3.80;;
69030;SDS011;56083;48.774;8.942;2024-03-17T09:21:40;7.53;;;3.95;;
69030;SDS011;56083;48.774;8.942;2024-03-17T09:24:09;6.90;;;4.10;;
69030;SDS011;56083;48.774;8.942;2024-03-17T09:26:36;7.88;;;4.20;;
69030;SDS011;56083;48.774;8.942;2024-03-17T09:29:04;5.18;;;3.50;;
69030;SDS011;56083;48.774;8.942;2024-03-17T09:31:30;6.03;;;3.63;;
69030;SDS011;56083;48.774;8.942;2024-03-17T09:33:59;5.00;;;3.22;;
69030;SDS011;56083;48.774;8.942;2024-03-17T09:36:26;6.40;;;3.85;;
69030;SDS011;56083;48.774;8.942;2024-03-17T09:38:52;5.95;;;3.03;;
69030;SDS011;56083;48.774;8.942;2024-03-17T09:41:22;7.10;;;3.38;;
69030;SDS011;56083;48.774;8.942;2024-03-17T09:43:58;7.22;;;3.55;;
69030;SDS011;56083;48.774;8.942;2024-03-17T09:46:25;9.27;;;3.45;;
69030;SDS011;56083;48.774;8.942;2024-03-17T09:48:52;10.00;;;3.40;;
69030;SDS011;56083;48.774;8.942;2024-03-17T09:51:22;7.47;;;3.50;;
69030;SDS011;56083;48.774;8.942;2024-03-17T09:53:48;8.75;;;3.90;;
69030;SDS011;56083;48.774;8.942;2024-03-17T09:56:18;8.38;;;3.40;;
69030;SDS011;56083;48.774;8.942;2024-03-17T09:58:45;5.82;;;3.47;;
69030;SDS011;56083;48.774;8.942;2024-03-17T10:01:11;7.75;;;3.47;;
69030;SDS011;56083;48.774;8.942;2024-03-17T10:06:13;6.47;;;3.60;;
69030;SDS011;56083;48.774;8.942;2024-03-17T10:08:40;6.90;;;3.72;;
69030;SDS011;56083;48.774;8.942;2024-03-17T10:11:06;7.57;;;3.35;;
69030;SDS011;56083;48.774;8.942;2024-03-17T10:13:32;7.10;;;3.90;;
69030;SDS011;56083;48.774;8.942;2024-03-17T10:15:58;6.85;;;3.42;;
69030;SDS011;56083;48.774;8.942;2024-03-17T10:18:24;8.50;;;3.97;;
69030;SDS011;56083;48.774;8.942;2024-03-17T10:20:50;7.20;;;3.90;;
69030;SDS011;56083;48.774;8.942;2024-03-17T10:23:20;9.77;;;3.63;;
69030;SDS011;56083;48.774;8.942;2024-03-17T10:25:46;6.30;;;2.78;;
69030;SDS011;56083;48.774;8.942;2024-03-17T10:28:13;5.88;;;2.60;;
69030;SDS011;56083;48.774;8.942;2024-03-17T10:30:40;6.70;;;2.63;;
69030;SDS011;56083;48.774;8.942;2024-03-17T10:33:07;5.88;;;2.15;;
69030;SDS011;56083;48.774;8.942;2024-03-17T10:35:35;5.20;;;2.65;;
69030;SDS011;56083;48.774;8.942;2024-03-17T10:38:05;6.05;;;2.78;;
69030;SDS011;56083;48.774;8.942;2024-03-17T10:40:32;6.65;;;3.08;;
69030;SDS011;56083;48.774;8.942;2024-03-17T10:43:01;5.20;;;2.75;;
69030;SDS011;56083;48.774;8.942;2024-03-17T10:45:28;5.30;;;2.60;;
69030;SDS011;56083;48.774;8.942;2024-03-17T10:48:01;4.93;;;2.80;;
69030;SDS011;56083;48.774;8.942;2024-03-17T10:50:30;5.47;;;2.90;;
69030;SDS011;56083;48.774;8.942;2024-03-17T10:52:58;3.92;;;2.15;;
69030;SDS011;56083;48.774;8.942;2024-03-17T10:55:27;4.55;;;2.50;;
69030;SDS011;56083;48.774;8.942;2024-03-17T10:57:57;8.98;;;2.80;;
69030;SDS011;56083;48.774;8.942;2024-03-17T11:00:26;8.27;;;2.50;;
69030;SDS011;56083;48.774;8.942;2024-03-17T11:02:54;5.57;;;2.95;;
69030;SDS011;56083;48.774;8.942;2024-03-17T11:05:24;6.15;;;2.30;;
69030;SDS011;56083;48.774;8.942;2024-03-17T11:07:54;6.03;;;2.30;;
69030;SDS011;56083;48.774;8.942;2024-03-17T11:10:26;4.72;;;2.25;;
69030;SDS011;56083;48.774;8.942;2024-03-17T11:12:57;3.78;;;2.00;;
69030;SDS011;56083;48.774;8.942;2024-03-17T11:20:34;4.28;;;1.90;;
69030;SDS011;56083;48.774;8.942;2024-03-17T11:23:01;5.32;;;2.40;;
69030;SDS011;56083;48.774;8.942;2024-03-17T11:27:59;4.43;;;2.17;;
69030;SDS011;56083;48.774;8.942;2024-03-17T11:41:41;3.00;;;1.77;;
69030;SDS011;56083;48.774;8.942;2024-03-17T11:46:50;4.90;;;1.80;;
69030;SDS011;56083;48.774;8.942;2024-03-17T11:51:45;5.07;;;1.95;;
69030;SDS011;56083;48.774;8.942;2024-03-17T11:54:14;4.72;;;1.55;;
69030;SDS011;56083;48.774;8.942;2024-03-17T11:56:43;3.90;;;1.60;;
69030;SDS011;56083;48.774;8.942;2024-03-17T11:59:10;4.85;;;1.88;;
69030;SDS011;56083;48.774;8.942;2024-03-17T12:01:36;4.00;;;1.50;;
69030;SDS011;56083;48.774;8.942;2024-03-17T12:04:06;3.60;;;1.48;;
69030;SDS011;56083;48.774;8.942;2024-03-17T12:06:32;4.72;;;1.58;;
69030;SDS011;56083;48.774;8.942;2024-03-17T12:09:08;4.00;;;1.40;;
69030;SDS011;56083;48.774;8.942;2024-03-17T12:11:37;3.30;;;1.23;;
69030;SDS011;56083;48.774;8.942;2024-03-17T12:14:16;4.47;;;1.30;;
69030;SDS011;56083;48.774;8.942;2024-03-17T12:19:19;4.40;;;1.73;;
69030;SDS011;56083;48.774;8.942;2024-03-17T12:21:53;4.82;;;1.70;;
69030;SDS011;56083;48.774;8.942;2024-03-17T12:24:20;6.50;;;2.30;;
69030;SDS011;56083;48.774;8.942;2024-03-17T12:26:48;5.20;;;1.20;;
69030;SDS011;56083;48.774;8.942;2024-03-17T12:31:50;3.75;;;1.00;;
69030;SDS011;56083;48.774;8.942;2024-03-17T12:34:18;2.08;;;1.05;;
69030;SDS011;56083;48.774;8.942;2024-03-17T12:36:47;2.85;;;1.10;;
69030;SDS011;56083;48.774;8.942;2024-03-17T12:41:44;3.00;;;1.10;;
69030;SDS011;56083;48.774;8.942;2024-03-17T12:44:23;2.83;;;0.95;;
69030;SDS011;56083;48.774;8.942;2024-03-17T12:46:56;2.97;;;0.98;;
69030;SDS011;56083;48.774;8.942;2024-03-17T12:49:22;5.03;;;1.20;;
69030;SDS011;56083;48.774;8.942;2024-03-17T12:51:51;3.03;;;1.05;;
69030;SDS011;56083;48.774;8.942;2024-03-17T12:54:21;3.83;;;1.10;;
69030;SDS011;56083;48.774;8.942;2024-03-17T12:56:48;4.45;;;0.90;;
69030;SDS011;56083;48.774;8.942;2024-03-17T12:59:37;4.78;;;1.20;;
69030;SDS011;56083;48.774;8.942;2024-03-17T13:02:21;6.35;;;1.60;;
69030;SDS011;56083;48.774;8.942;2024-03-17T13:07:35;5.40;;;1.30;;
69030;SDS011;56083;48.774;8.942;2024-03-17T13:10:05;4.28;;;1.00;;
69030;SDS011;56083;48.774;8.942;2024-03-17T13:12:32;4.00;;;1.00;;
69030;SDS011;56083;48.774;8.942;2024-03-17T13:14:59;2.92;;;0.77;;
69030;SDS011;56083;48.774;8.942;2024-03-17T13:17:25;7.45;;;1.30;;
69030;SDS011;56083;48.774;8.942;2024-03-17T13:19:53;3.72;;;1.00;;
69030;SDS011;56083;48.774;8.942;2024-03-17T13:22:19;2.55;;;0.90;;
69030;SDS011;56083;48.774;8.942;2024-03-17T13:24:45;2.42;;;0.82;;
69030;SDS011;56083;48.774;8.942;2024-03-17T13:27:12;5.47;;;1.20;;
69030;SDS011;56083;48.774;8.942;2024-03-17T13:29:39;7.03;;;0.95;;
69030;SDS011;56083;48.774;8.942;2024-03-17T13:32:09;3.53;;;0.90;;
69030;SDS011;56083;48.774;8.942;2024-03-17T13:34:35;2.45;;;1.13;;
69030;SDS011;56083;48.774;8.942;2024-03-17T13:37:01;2.75;;;0.77;;
69030;SDS011;56083;48.774;8.942;2024-03-17T13:39:29;5.57;;;1.00;;
69030;SDS011;56083;48.774;8.942;2024-03-17T13:41:56;2.38;;;0.88;;
69030;SDS011;56083;48.774;8.942;2024-03-17T13:44:27;3.13;;;1.10;;
69030;SDS011;56083;48.774;8.942;2024-03-17T13:46:53;2.63;;;0.85;;
69030;SDS011;56083;48.774;8.942;2024-03-17T13:49:19;2.25;;;1.00;;
69030;SDS011;56083;48.774;8.942;2024-03-17T13:51:45;3.40;;;1.05;;
69030;SDS011;56083;48.774;8.942;2024-03-17T13:54:11;3.00;;;1.10;;
69030;SDS011;56083;48.774;8.942;2024-03-17T13:56:37;2.80;;;0.77;;
69030;SDS011;56083;48.774;8.942;2024-03-17T13:59:03;3.45;;;1.15;;
69030;SDS011;56083;48.774;8.942;2024-03-17T14:01:29;4.30;;;1.00;;
69030;SDS011;56083;48.774;8.942;2024-03-17T14:03:55;4.53;;;1.05;;
69030;SDS011;56083;48.774;8.942;2024-03-17T14:06:21;3.33;;;1.20;;
69030;SDS011;56083;48.774;8.942;2024-03-17T14:08:47;3.38;;;1.17;;
69030;SDS011;56083;48.774;8.942;2024-03-17T14:11:13;4.00;;;1.10;;
69030;SDS011;56083;48.774;8.942;2024-03-17T14:13:39;3.97;;;1.17;;
69030;SDS011;56083;48.774;8.942;2024-03-17T14:16:05;3.30;;;1.05;;
69030;SDS011;56083;48.774;8.942;2024-03-17T14:18:31;4.68;;;1.25;;
69030;SDS011;56083;48.774;8.942;2024-03-17T14:20:58;4.70;;;1.15;;
69030;SDS011;56083;48.774;8.942;2024-03-17T14:23:24;3.15;;;1.10;;
69030;SDS011;56083;48.774;8.942;2024-03-17T14:25:50;3.90;;;1.15;;
69030;SDS011;56083;48.774;8.942;2024-03-17T14:28:16;3.25;;;1.20;;
69030;SDS011;56083;48.774;8.942;2024-03-17T14:30:43;3.25;;;1.10;;
69030;SDS011;56083;48.774;8.942;2024-03-17T14:33:09;4.55;;;1.08;;
69030;SDS011;56083;48.774;8.942;2024-03-17T14:35:35;5.60;;;1.15;;
69030;SDS011;56083;48.774;8.942;2024-03-17T14:38:03;6.47;;;0.98;;
69030;SDS011;56083;48.774;8.942;2024-03-17T14:40:29;2.95;;;0.90;;
69030;SDS011;56083;48.774;8.942;2024-03-17T14:42:55;5.68;;;2.40;;
69030;SDS011;56083;48.774;8.942;2024-03-17T14:45:21;5.45;;;2.65;;
69030;SDS011;56083;48.774;8.942;2024-03-17T14:47:49;5.57;;;3.28;;
69030;SDS011;56083;48.774;8.942;2024-03-17T14:50:16;5.05;;;3.10;;
69030;SDS011;56083;48.774;8.942;2024-03-17T14:52:42;7.63;;;3.65;;
69030;SDS011;56083;48.774;8.942;2024-03-17T14:55:09;7.20;;;2.97;;
69030;SDS011;56083;48.774;8.942;2024-03-17T14:57:38;5.72;;;2.80;;
69030;SDS011;56083;48.774;8.942;2024-03-17T15:00:06;5.03;;;2.60;;
69030;SDS011;56083;48.774;8.942;2024-03-17T15:05:04;6.65;;;2.92;;
69030;SDS011;56083;48.774;8.942;2024-03-17T15:07:31;5.65;;;2.53;;
69030;SDS011;56083;48.774;8.942;2024-03-17T15:09:57;7.40;;;3.20;;
69030;SDS011;56083;48.774;8.942;2024-03-17T15:12:23;6.57;;;3.40;;
69030;SDS011;56083;48.774;8.942;2024-03-17T15:14:50;7.85;;;3.15;;
69030;SDS011;56083;48.774;8.942;2024-03-17T15:17:17;6.75;;;3.45;;
69030;SDS011;56083;48.774;8.942;2024-03-17T15:19:46;8.10;;;3.28;;
69030;SDS011;56083;48.774;8.942;2024-03-17T15:22:13;4.93;;;3.05;;
69030;SDS011;56083;48.774;8.942;2024-03-17T15:24:39;8.73;;;3.40;;
69030;SDS011;56083;48.774;8.942;2024-03-17T15:27:05;5.57;;;3.10;;
69030;SDS011;56083;48.774;8.942;2024-03-17T15:29:31;4.43;;;3.10;;
69030;SDS011;56083;48.774;8.942;2024-03-17T15:31:57;7.50;;;3.53;;
69030;SDS011;56083;48.774;8.942;2024-03-17T15:34:23;6.95;;;3.83;;
69030;SDS011;56083;48.774;8.942;2024-03-17T15:36:50;8.75;;;3.75;;
69030;SDS011;56083;48.774;8.942;2024-03-17T15:39:16;5.85;;;3.40;;
69030;SDS011;56083;48.774;8.942;2024-03-17T15:41:42;4.97;;;3.38;;
69030;SDS011;56083;48.774;8.942;2024-03-17T15:44:09;6.45;;;3.63;;
69030;SDS011;56083;48.774;8.942;2024-03-17T15:46:35;8.52;;;3.63;;
69030;SDS011;56083;48.774;8.942;2024-03-17T15:49:02;7.10;;;4.03;;
69030;SDS011;56083;48.774;8.942;2024-03-17T15:51:29;8.68;;;3.95;;
69030;SDS011;56083;48.774;8.942;2024-03-17T15:53:55;8.20;;;4.28;;
69030;SDS011;56083;48.774;8.942;2024-03-17T15:56:21;7.32;;;3.92;;
69030;SDS011;56083;48.774;8.942;2024-03-17T15:58:47;9.50;;;4.45;;
69030;SDS011;56083;48.774;8.942;2024-03-17T16:01:13;7.18;;;3.80;;
69030;SDS011;56083;48.774;8.942;2024-03-17T16:03:39;7.65;;;4.18;;
69030;SDS011;56083;48.774;8.942;2024-03-17T16:06:11;6.65;;;3.22;;
69030;SDS011;56083;48.774;8.942;2024-03-17T16:08:39;6.55;;;3.95;;
69030;SDS011;56083;48.774;8.942;2024-03-17T16:11:07;8.57;;;4.05;;
69030;SDS011;56083;48.774;8.942;2024-03-17T16:13:40;9.77;;;4.10;;
69030;SDS011;56083;48.774;8.942;2024-03-17T16:16:07;8.77;;;3.90;;
69030;SDS011;56083;48.774;8.942;2024-03-17T16:18:37;7.40;;;3.83;;
69030;SDS011;56083;48.774;8.942;2024-03-17T16:21:05;7.20;;;4.03;;
69030;SDS011;56083;48.774;8.942;2024-03-17T16:23:32;21.88;;;4.15;;